createdAt,value
2018-07-31T00:00:57.206Z,100784.64
2018-07-31T00:02:33.755Z,100766.34
2018-07-31T00:04:10.368Z,100755.68
2018-07-31T00:05:48.643Z,100757.05
2018-07-31T00:07:27.149Z,100748.20
2018-07-31T00:09:03.875Z,100754.92
2018-07-31T00:10:43.539Z,100748.58
2018-07-31T00:12:20.334Z,100776.44
2018-07-31T00:14:02.659Z,100759.02
2018-07-31T00:15:39.502Z,100747.44
2018-07-31T00:17:17.659Z,100721.10
2018-07-31T00:18:56.374Z,100644.34
2018-07-31T00:20:35.209Z,100642.60
2018-07-31T00:22:12.278Z,100639.00
2018-07-31T00:23:55.559Z,100651.55
2018-07-31T00:25:32.167Z,100674.53
2018-07-31T00:27:11.398Z,100706.56
2018-07-31T00:28:48.918Z,100690.16
2018-07-31T00:30:27.901Z,100693.88
2018-07-31T00:32:05.221Z,100666.56
2018-07-31T00:33:43.570Z,100671.16
2018-07-31T00:35:20.088Z,100688.53
2018-07-31T00:36:58.373Z,100716.23
2018-07-31T00:38:35.707Z,100731.90
2018-07-31T00:40:13.227Z,100741.45
2018-07-31T00:41:49.694Z,100725.29
2018-07-31T00:43:29.202Z,100710.75
2018-07-31T00:45:08.166Z,100700.09
2018-07-31T00:46:45.347Z,100694.73
2018-07-31T00:48:21.907Z,100695.23
2018-07-31T00:51:29.693Z,100635.62
2018-07-31T00:53:06.703Z,100590.47
2018-07-31T00:54:43.520Z,100564.23
2018-07-31T00:56:20.289Z,100563.77
2018-07-31T00:57:56.997Z,100555.55
2018-07-31T00:59:35.653Z,100554.06
2018-07-31T01:01:13.012Z,100569.80
2018-07-31T01:02:50.341Z,100572.53
2018-07-31T01:04:26.699Z,100579.73
2018-07-31T01:06:04.751Z,100599.36
2018-07-31T01:07:41.456Z,100604.82
2018-07-31T01:09:18.588Z,100609.30
2018-07-31T01:10:55.120Z,100611.64
2018-07-31T01:12:32.448Z,100616.72
2018-07-31T01:14:10.302Z,100631.39
2018-07-31T01:15:48.585Z,100631.88
2018-07-31T01:17:25.267Z,100647.52
2018-07-31T01:19:04.619Z,100664.16
2018-07-31T01:20:41.333Z,100659.79
2018-07-31T01:22:19.624Z,100682.02
2018-07-31T01:23:57.063Z,100663.77
2018-07-31T01:25:33.615Z,100648.37
2018-07-31T01:27:10.108Z,100644.88
2018-07-31T01:28:47.908Z,100648.37
2018-07-31T01:30:25.202Z,100635.09
2018-07-31T01:32:03.099Z,100640.16
2018-07-31T01:33:41.003Z,100641.91
2018-07-31T01:35:17.668Z,100645.62
2018-07-31T01:36:54.204Z,100615.67
2018-07-31T01:38:32.390Z,100582.64
2018-07-31T01:40:09.006Z,100554.97
2018-07-31T01:41:45.496Z,100558.34
2018-07-31T01:43:24.612Z,100505.73
2018-07-31T01:45:01.780Z,100504.48
2018-07-31T01:46:40.715Z,100496.94
2018-07-31T01:48:17.176Z,100519.25
2018-07-31T01:49:53.799Z,100570.72
2018-07-31T01:51:30.623Z,100592.06
2018-07-31T01:53:08.214Z,100642.56
2018-07-31T01:54:45.721Z,100666.16
2018-07-31T01:56:22.860Z,100669.38
2018-07-31T01:57:59.738Z,100678.44
2018-07-31T01:59:38.095Z,100671.72
2018-07-31T02:01:15.026Z,100668.27
2018-07-31T02:02:51.502Z,100693.36
2018-07-31T02:04:28.437Z,100670.01
2018-07-31T02:06:06.112Z,100647.40
2018-07-31T02:07:42.675Z,100677.33
2018-07-31T02:09:19.208Z,100690.33
2018-07-31T02:10:55.731Z,100631.99
2018-07-31T02:12:32.420Z,100642.30
2018-07-31T02:14:09.338Z,100718.80
2018-07-31T02:15:46.655Z,100740.16
2018-07-31T02:17:24.024Z,100754.05
2018-07-31T02:19:00.553Z,100778.28
2018-07-31T02:20:37.111Z,100822.88
2018-07-31T02:22:13.608Z,100816.66
2018-07-31T02:23:50.602Z,100836.87
2018-07-31T02:25:27.088Z,100781.50
2018-07-31T02:27:04.114Z,100739.12
2018-07-31T02:28:40.628Z,100710.28
2018-07-31T02:30:23.064Z,100683.95
2018-07-31T02:31:59.632Z,100735.34
2018-07-31T02:33:36.149Z,100756.36
2018-07-31T02:35:12.702Z,100780.45
2018-07-31T02:36:52.650Z,100777.87
2018-07-31T02:38:29.227Z,100769.02
2018-07-31T02:40:06.243Z,100771.64
2018-07-31T02:41:42.801Z,100834.75
2018-07-31T02:43:19.862Z,100870.02
2018-07-31T02:44:56.307Z,100905.33
2018-07-31T02:46:34.298Z,100877.33
2018-07-31T02:48:10.992Z,100829.99
2018-07-31T02:49:48.373Z,100810.86
2018-07-31T02:51:26.090Z,100811.34
2018-07-31T02:53:02.946Z,100816.31
2018-07-31T02:54:41.572Z,100797.19
2018-07-31T02:56:18.161Z,100782.49
2018-07-31T02:57:55.156Z,100727.21
2018-07-31T02:59:31.659Z,100692.84
2018-07-31T03:01:08.585Z,100669.36
2018-07-31T03:02:45.522Z,100559.69
2018-07-31T03:04:22.130Z,100574.31
2018-07-31T03:05:59.519Z,100626.17
2018-07-31T03:07:36.033Z,100630.75
2018-07-31T03:09:15.300Z,100603.95
2018-07-31T03:10:54.313Z,100685.23
2018-07-31T03:12:34.052Z,100804.42
2018-07-31T03:14:10.958Z,100807.16
2018-07-31T03:15:48.464Z,100768.30
2018-07-31T03:17:25.148Z,100744.80
2018-07-31T03:19:01.989Z,100707.33
2018-07-31T03:20:44.908Z,100686.31
2018-07-31T03:22:21.859Z,100664.13
2018-07-31T03:23:58.394Z,100701.70
2018-07-31T03:25:34.883Z,100805.65
2018-07-31T03:27:11.528Z,100936.51
2018-07-31T03:28:49.176Z,100912.53
2018-07-31T03:30:25.411Z,100871.13
2018-07-31T03:32:02.008Z,100812.96
2018-07-31T03:33:38.547Z,100894.75
2018-07-31T03:35:15.572Z,100873.86
2018-07-31T03:36:52.026Z,100743.13
2018-07-31T03:38:28.566Z,100702.92
2018-07-31T03:40:05.534Z,100635.16
2018-07-31T03:41:42.055Z,100629.44
2018-07-31T03:43:18.681Z,100714.70
2018-07-31T03:44:56.390Z,100806.59
2018-07-31T03:46:33.480Z,100887.02
2018-07-31T03:48:10.336Z,100827.20
2018-07-31T03:49:46.900Z,100759.48
2018-07-31T03:51:23.473Z,100867.56
2018-07-31T03:53:00.864Z,100911.34
2018-07-31T03:54:37.740Z,100957.81
2018-07-31T03:56:15.320Z,100960.55
2018-07-31T03:57:53.548Z,100986.52
2018-07-31T03:59:29.983Z,100994.70
2018-07-31T04:01:08.061Z,101018.45
2018-07-31T04:02:44.502Z,100988.38
2018-07-31T04:04:21.006Z,100954.55
2018-07-31T04:05:58.009Z,100758.09
2018-07-31T04:07:34.749Z,100664.37
2018-07-31T04:09:13.429Z,100645.27
2018-07-31T04:10:50.310Z,100716.73
2018-07-31T04:12:26.886Z,100864.16
2018-07-31T04:14:04.043Z,100927.17
2018-07-31T04:15:41.412Z,100823.41
2018-07-31T04:17:18.214Z,100682.48
2018-07-31T04:18:55.561Z,100603.02
2018-07-31T04:20:32.620Z,100471.59
2018-07-31T04:22:09.564Z,100363.34
2018-07-31T04:23:46.142Z,100417.39
2018-07-31T04:25:24.220Z,100515.33
2018-07-31T04:27:00.683Z,100517.67
2018-07-31T04:28:39.956Z,100535.55
2018-07-31T04:30:21.451Z,100530.70
2018-07-31T04:32:00.219Z,100493.76
2018-07-31T04:33:45.522Z,100603.48
2018-07-31T04:35:26.117Z,100629.02
2018-07-31T04:37:05.889Z,100687.89
2018-07-31T04:38:42.393Z,100722.15
2018-07-31T04:40:20.496Z,100681.19
2018-07-31T04:41:57.997Z,100720.05
2018-07-31T04:43:35.055Z,100696.45
2018-07-31T04:45:13.742Z,100738.40
2018-07-31T04:46:50.630Z,100849.28
2018-07-31T04:48:27.728Z,100964.50
2018-07-31T04:50:09.960Z,101171.58
2018-07-31T04:51:46.883Z,101328.06
2018-07-31T04:53:23.759Z,101322.20
2018-07-31T04:55:04.292Z,101208.51
2018-07-31T04:56:41.233Z,101139.20
2018-07-31T04:58:19.935Z,101091.67
2018-07-31T04:59:58.888Z,101016.69
2018-07-31T05:01:36.173Z,100928.27
2018-07-31T05:03:12.567Z,100957.84
2018-07-31T05:04:53.356Z,100935.94
2018-07-31T05:06:31.631Z,100973.03
2018-07-31T05:08:08.298Z,100901.53
2018-07-31T05:09:44.767Z,100766.64
2018-07-31T05:11:28.735Z,100692.61
2018-07-31T05:13:05.889Z,100770.83
2018-07-31T05:14:43.273Z,100924.87
2018-07-31T05:16:20.046Z,101054.56
2018-07-31T05:17:56.588Z,101187.52
2018-07-31T05:19:33.436Z,101313.40
2018-07-31T05:21:10.060Z,101374.28
2018-07-31T05:22:47.043Z,101418.76
2018-07-31T05:24:24.263Z,101492.77
2018-07-31T05:26:04.695Z,101467.31
2018-07-31T05:27:41.998Z,101448.89
2018-07-31T05:29:18.467Z,101489.25
2018-07-31T05:30:55.165Z,101664.35
2018-07-31T05:33:59.400Z,101944.66
2018-07-31T05:35:35.824Z,102027.48
2018-07-31T05:37:12.254Z,102183.59
2018-07-31T05:38:49.255Z,102467.52
2018-07-31T05:40:25.729Z,102350.02
2018-07-31T05:42:02.299Z,102160.88
2018-07-31T05:43:39.374Z,102227.95
2018-07-31T05:45:18.267Z,102533.11
2018-07-31T05:46:54.986Z,102780.94
2018-07-31T05:48:32.152Z,102952.28
2018-07-31T05:50:09.663Z,102986.69
2018-07-31T05:51:46.605Z,102936.95
2018-07-31T05:53:23.238Z,103017.53
2018-07-31T05:55:01.049Z,103235.75
2018-07-31T05:56:37.553Z,103435.12
2018-07-31T05:58:14.404Z,103513.56
2018-07-31T05:59:50.942Z,103388.03
2018-07-31T06:01:27.835Z,103490.08
2018-07-31T06:03:04.311Z,103506.34
2018-07-31T06:04:43.210Z,103433.48
2018-07-31T06:06:19.667Z,103216.36
2018-07-31T06:07:56.160Z,102960.80
2018-07-31T06:09:33.467Z,102739.36
2018-07-31T06:11:11.087Z,102668.50
2018-07-31T06:12:48.100Z,102720.91
2018-07-31T06:14:24.661Z,102727.20
2018-07-31T06:16:01.418Z,102557.41
2018-07-31T06:17:38.334Z,102534.95
2018-07-31T06:19:14.772Z,102351.86
2018-07-31T06:20:51.251Z,102283.06
2018-07-31T06:22:28.376Z,102228.03
2018-07-31T06:24:06.824Z,102040.92
2018-07-31T06:25:43.232Z,102063.28
2018-07-31T06:27:21.143Z,101950.94
2018-07-31T06:28:58.502Z,101790.54
2018-07-31T06:30:36.582Z,101828.27
2018-07-31T06:32:13.055Z,101827.30
2018-07-31T06:33:51.145Z,102008.45
2018-07-31T06:35:29.020Z,102134.87
2018-07-31T06:37:07.166Z,102125.36
2018-07-31T06:38:43.583Z,102041.19
2018-07-31T06:40:21.753Z,102068.28
2018-07-31T06:41:58.121Z,102076.41
2018-07-31T06:43:34.540Z,102207.77
2018-07-31T06:45:12.614Z,102279.83
2018-07-31T06:46:50.628Z,102224.50
2018-07-31T06:48:29.472Z,102228.92
2018-07-31T06:50:09.714Z,102227.16
2018-07-31T06:51:46.188Z,102068.77
2018-07-31T06:53:24.233Z,102014.41
2018-07-31T06:55:01.011Z,101840.80
2018-07-31T06:56:38.171Z,101950.94
2018-07-31T06:58:14.643Z,102108.92
2018-07-31T06:59:51.921Z,102074.24
2018-07-31T07:01:29.001Z,102038.27
2018-07-31T07:03:05.630Z,102175.94
2018-07-31T07:04:42.103Z,102283.15
2018-07-31T07:06:19.089Z,102243.11
2018-07-31T07:07:57.678Z,101925.81
2018-07-31T07:09:34.186Z,101845.88
2018-07-31T07:11:10.682Z,101770.03
2018-07-31T07:12:48.639Z,101600.38
2018-07-31T07:14:25.371Z,101510.23
2018-07-31T07:16:02.068Z,101686.57
2018-07-31T07:17:40.429Z,101912.83
2018-07-31T07:19:16.868Z,102065.27
2018-07-31T07:20:54.468Z,102065.75
2018-07-31T07:22:31.953Z,101755.69
2018-07-31T07:24:09.068Z,101801.09
2018-07-31T07:25:46.880Z,101997.00
2018-07-31T07:27:23.753Z,102163.42
2018-07-31T07:29:01.185Z,102290.00
2018-07-31T07:30:37.520Z,102249.97
2018-07-31T07:32:15.078Z,102107.24
2018-07-31T07:33:51.656Z,101697.03
2018-07-31T07:35:28.110Z,101401.90
2018-07-31T07:37:04.639Z,101418.84
2018-07-31T07:38:41.897Z,101519.80
2018-07-31T07:40:20.553Z,101681.20
2018-07-31T07:41:58.047Z,101976.73
2018-07-31T07:43:36.215Z,102019.98
2018-07-31T07:45:12.694Z,101983.59
2018-07-31T07:46:53.918Z,102157.27
2018-07-31T07:48:32.156Z,102268.09
2018-07-31T07:50:09.484Z,102539.84
2018-07-31T07:51:46.846Z,102314.11
2018-07-31T07:53:25.001Z,102053.52
2018-07-31T07:55:02.297Z,102077.37
2018-07-31T07:56:40.524Z,102193.88
2018-07-31T07:58:18.680Z,102259.65
2018-07-31T07:59:55.701Z,102471.09
2018-07-31T08:01:33.065Z,102555.34
2018-07-31T08:03:09.480Z,102536.50
2018-07-31T08:04:46.702Z,102665.13
2018-07-31T08:06:23.458Z,102693.98
2018-07-31T08:08:01.069Z,102912.22
2018-07-31T08:09:38.433Z,103054.25
2018-07-31T08:11:15.443Z,102830.45
2018-07-31T08:12:54.936Z,102584.35
2018-07-31T08:14:32.010Z,102688.30
2018-07-31T08:16:14.526Z,102738.84
2018-07-31T08:17:52.845Z,102704.48
2018-07-31T08:19:29.303Z,102621.03
2018-07-31T08:21:07.378Z,102742.48
2018-07-31T08:22:44.974Z,102932.23
2018-07-31T08:24:23.951Z,103148.86
2018-07-31T08:26:00.417Z,103304.15
2018-07-31T08:27:38.533Z,103392.04
2018-07-31T08:29:16.043Z,103440.58
2018-07-31T08:30:54.643Z,103508.67
2018-07-31T08:32:34.628Z,103547.22
2018-07-31T08:34:12.763Z,103662.89
2018-07-31T08:35:49.414Z,103562.19
2018-07-31T08:37:26.332Z,103253.16
2018-07-31T08:39:04.042Z,103363.71
2018-07-31T08:40:43.611Z,103345.97
2018-07-31T08:42:21.627Z,103597.25
2018-07-31T08:43:58.371Z,103704.64
2018-07-31T08:45:37.519Z,103793.73
2018-07-31T08:47:14.291Z,103973.24
2018-07-31T08:50:31.902Z,104388.33
2018-07-31T08:52:08.548Z,104469.53
2018-07-31T08:53:45.124Z,104530.59
2018-07-31T08:55:22.167Z,104464.06
2018-07-31T08:56:59.321Z,104471.29
2018-07-31T08:58:36.747Z,104386.95
2018-07-31T09:00:13.353Z,103945.08
2018-07-31T09:01:50.962Z,103986.00
2018-07-31T09:03:27.859Z,104209.72
2018-07-31T09:05:05.092Z,104270.27
2018-07-31T09:06:43.546Z,104102.83
2018-07-31T09:08:21.075Z,103719.62
2018-07-31T09:09:58.586Z,103543.57
2018-07-31T09:11:36.640Z,103454.12
2018-07-31T09:13:13.702Z,103487.71
2018-07-31T09:14:54.303Z,103655.52
2018-07-31T09:16:31.308Z,103811.80
2018-07-31T09:18:08.311Z,103976.64
2018-07-31T09:19:44.858Z,104101.72
2018-07-31T09:21:21.304Z,104189.01
2018-07-31T09:22:59.231Z,104239.09
2018-07-31T09:24:36.618Z,104384.36
2018-07-31T09:26:13.021Z,104405.78
2018-07-31T09:27:50.201Z,104462.80
2018-07-31T09:29:28.271Z,104576.25
2018-07-31T09:31:10.785Z,104689.35
2018-07-31T09:32:52.813Z,104527.44
2018-07-31T09:34:29.214Z,104332.77
2018-07-31T09:36:07.375Z,104236.22
2018-07-31T09:37:44.358Z,104056.08
2018-07-31T09:39:20.722Z,103990.05
2018-07-31T09:40:59.336Z,104064.19
2018-07-31T09:42:36.247Z,104097.33
2018-07-31T09:44:14.095Z,104097.74
2018-07-31T09:45:52.215Z,104093.60
2018-07-31T09:47:28.530Z,103935.78
2018-07-31T09:49:06.727Z,103806.22
2018-07-31T09:50:43.678Z,103773.43
2018-07-31T09:52:21.125Z,103853.89
2018-07-31T09:54:00.621Z,103916.53
2018-07-31T09:55:37.467Z,103936.01
2018-07-31T09:57:14.928Z,103959.13
2018-07-31T09:58:51.336Z,103941.83
2018-07-31T10:00:35.883Z,103993.23
2018-07-31T10:02:13.405Z,103945.89
2018-07-31T10:05:20.088Z,103913.52
2018-07-31T10:06:58.025Z,103842.64
2018-07-31T10:08:34.809Z,103893.09
2018-07-31T10:10:11.422Z,103894.47
2018-07-31T10:11:53.039Z,103988.46
2018-07-31T10:13:29.998Z,104035.39
2018-07-31T10:15:07.012Z,104183.53
2018-07-31T10:18:33.121Z,104033.84
2018-07-31T10:20:10.187Z,103964.66
2018-07-31T10:21:49.340Z,104019.69
2018-07-31T10:23:28.690Z,104032.38
2018-07-31T10:25:36.707Z,103993.24
2018-07-31T10:27:14.632Z,104034.17
2018-07-31T10:28:52.780Z,104082.80
2018-07-31T10:30:31.787Z,104033.09
2018-07-31T10:32:10.499Z,104083.59
2018-07-31T10:33:50.836Z,104096.77
2018-07-31T10:35:28.198Z,104212.79
2018-07-31T10:37:06.473Z,104228.67
2018-07-31T10:38:43.005Z,104062.99
2018-07-31T10:40:24.074Z,103976.13
2018-07-31T10:42:03.553Z,103857.86
2018-07-31T10:43:41.447Z,103690.70
2018-07-31T10:45:20.697Z,103729.22
2018-07-31T10:46:57.652Z,103633.41
2018-07-31T10:48:35.222Z,103674.16
2018-07-31T10:50:12.284Z,103818.59
2018-07-31T10:51:51.856Z,103953.62
2018-07-31T10:53:30.151Z,104034.48
2018-07-31T10:55:09.432Z,104082.22
2018-07-31T10:56:47.710Z,104113.66
2018-07-31T10:58:24.217Z,104139.05
2018-07-31T11:00:01.961Z,104163.17
2018-07-31T11:01:39.442Z,104187.71
2018-07-31T11:03:19.624Z,104199.06
2018-07-31T11:04:57.650Z,104172.59
2018-07-31T11:06:41.825Z,104226.30
2018-07-31T11:08:18.867Z,104385.21
2018-07-31T11:10:13.469Z,104386.59
2018-07-31T11:11:51.802Z,104347.31
2018-07-31T11:13:39.460Z,104336.32
2018-07-31T11:17:11.473Z,104074.17
2018-07-31T11:18:54.201Z,104070.44
2018-07-31T11:20:36.660Z,103887.95
2018-07-31T11:22:14.842Z,103703.50
2018-07-31T11:23:54.124Z,103723.02
2018-07-31T11:25:33.217Z,103806.95
2018-07-31T11:27:12.078Z,103925.61
2018-07-31T11:28:49.123Z,103956.91
2018-07-31T11:30:27.380Z,103905.06
2018-07-31T11:32:07.053Z,103973.62
2018-07-31T11:33:46.562Z,103922.37
2018-07-31T11:35:30.237Z,103916.84
2018-07-31T11:37:11.535Z,103827.23
2018-07-31T11:38:48.290Z,103827.19
2018-07-31T11:40:29.771Z,103866.68
2018-07-31T11:42:11.937Z,103986.61
2018-07-31T11:43:56.597Z,104076.23
2018-07-31T11:45:33.751Z,104112.62
2018-07-31T11:47:25.256Z,104146.73
2018-07-31T11:49:12.546Z,104296.50
2018-07-31T11:50:50.224Z,104348.77
2018-07-31T11:52:31.895Z,104354.22
2018-07-31T11:54:09.837Z,104269.48
2018-07-31T11:55:46.825Z,104208.40
2018-07-31T11:57:25.942Z,103997.73
2018-07-31T11:59:05.807Z,103820.92
2018-07-31T12:00:48.082Z,103779.02
2018-07-31T12:02:33.925Z,103719.49
2018-07-31T12:04:13.766Z,103638.68
2018-07-31T12:05:51.417Z,103595.09
2018-07-31T12:07:31.241Z,103601.39
2018-07-31T12:09:15.106Z,103621.31
2018-07-31T12:10:52.591Z,103757.42
2018-07-31T12:12:33.537Z,103826.47
2018-07-31T12:14:12.801Z,103865.99
2018-07-31T12:15:54.170Z,103934.07
2018-07-31T12:17:34.042Z,104051.03
2018-07-31T12:19:14.345Z,104155.25
2018-07-31T12:20:53.589Z,104119.66
2018-07-31T12:22:32.547Z,104150.20
2018-07-31T12:24:21.234Z,104151.52
2018-07-31T12:26:09.657Z,104063.20
2018-07-31T12:28:00.397Z,104074.58
2018-07-31T12:29:43.941Z,103936.19
2018-07-31T12:31:25.411Z,103909.41
2018-07-31T12:33:04.709Z,103850.25
2018-07-31T12:34:53.022Z,103748.91
2018-07-31T12:36:31.015Z,103659.36
2018-07-31T12:38:09.276Z,103696.59
2018-07-31T12:39:47.796Z,103655.34
2018-07-31T12:41:27.986Z,103776.08
2018-07-31T12:43:05.679Z,103865.95
2018-07-31T12:44:43.220Z,103903.61
2018-07-31T12:46:23.343Z,103928.61
2018-07-31T12:48:01.661Z,103757.81
2018-07-31T12:49:39.897Z,103637.41
2018-07-31T12:51:20.355Z,103483.62
2018-07-31T12:52:59.488Z,103392.03
2018-07-31T12:54:46.282Z,103424.06
2018-07-31T12:56:26.300Z,103451.27
2018-07-31T12:58:06.289Z,103460.83
2018-07-31T13:00:01.761Z,103508.39
2018-07-31T13:01:39.384Z,103544.70
2018-07-31T13:03:16.840Z,103447.53
2018-07-31T13:04:55.283Z,103448.42
2018-07-31T13:06:34.362Z,103462.53
2018-07-31T13:08:14.305Z,103496.47
2018-07-31T13:09:53.331Z,103537.72
2018-07-31T13:11:32.516Z,103572.20
2018-07-31T13:14:37.872Z,103735.98
2018-07-31T13:16:16.096Z,103722.83
2018-07-31T13:17:59.361Z,103717.42
2018-07-31T13:19:40.824Z,103672.86
2018-07-31T13:21:18.076Z,103736.88
2018-07-31T13:22:59.175Z,103841.34
2018-07-31T13:24:36.351Z,103944.05
2018-07-31T13:26:14.282Z,104001.29
2018-07-31T13:27:54.406Z,103920.31
2018-07-31T13:29:41.627Z,103830.79
2018-07-31T13:31:23.879Z,103696.72
2018-07-31T13:33:13.379Z,103698.10
2018-07-31T13:34:51.335Z,103687.63
2018-07-31T13:36:29.448Z,103712.60
2018-07-31T13:38:06.799Z,103733.52
2018-07-31T13:39:49.587Z,103740.34
2018-07-31T13:41:27.079Z,103784.28
2018-07-31T13:43:05.243Z,103769.78
2018-07-31T13:44:48.605Z,103823.31
2018-07-31T13:46:27.998Z,103902.36
2018-07-31T13:48:07.873Z,103850.95
2018-07-31T13:49:48.983Z,103727.83
2018-07-31T13:51:29.997Z,103556.67
2018-07-31T13:53:13.128Z,103472.38
2018-07-31T13:54:51.988Z,103437.88
2018-07-31T13:56:30.166Z,103457.78
2018-07-31T13:58:10.618Z,103468.53
2018-07-31T13:59:48.269Z,103495.83
2018-07-31T14:01:27.196Z,103463.09
2018-07-31T14:03:04.796Z,103456.73
2018-07-31T14:04:59.275Z,103481.27
2018-07-31T14:06:42.435Z,103493.39
2018-07-31T14:08:20.835Z,103493.39
2018-07-31T14:10:10.769Z,103457.58
2018-07-31T14:13:32.628Z,103740.19
2018-07-31T14:15:31.506Z,103876.93
2018-07-31T14:17:20.166Z,103982.87
2018-07-31T14:19:24.184Z,103963.31
2018-07-31T14:21:04.474Z,103835.12
2018-07-31T14:22:42.473Z,103804.20
2018-07-31T14:24:21.317Z,103792.27
2018-07-31T14:25:58.870Z,103836.42
2018-07-31T14:27:37.728Z,103856.41
2018-07-31T14:29:17.371Z,103854.54
2018-07-31T14:31:00.198Z,103852.27
2018-07-31T14:32:39.722Z,103760.86
2018-07-31T14:34:28.992Z,103605.08
2018-07-31T14:36:06.529Z,103517.08
2018-07-31T14:37:45.896Z,103514.32
2018-07-31T14:39:27.206Z,103501.63
2018-07-31T14:41:05.527Z,103514.64
2018-07-31T14:42:42.914Z,103503.28
2018-07-31T14:44:25.421Z,103526.45
2018-07-31T14:46:07.260Z,103535.53
2018-07-31T14:47:53.829Z,103539.11
2018-07-31T14:49:45.740Z,103599.89
2018-07-31T14:51:23.431Z,103643.03
2018-07-31T14:53:02.120Z,103690.70
2018-07-31T14:54:49.122Z,103672.42
2018-07-31T14:56:25.542Z,103627.93
2018-07-31T14:58:02.130Z,103599.72
2018-07-31T14:59:38.832Z,103600.13
2018-07-31T15:01:17.012Z,103606.91
2018-07-31T15:02:54.772Z,103482.52
2018-07-31T15:04:34.954Z,103412.31
2018-07-31T15:06:13.873Z,103433.20
2018-07-31T15:07:52.855Z,103466.13
2018-07-31T15:09:31.097Z,103501.05
2018-07-31T15:11:08.813Z,103495.05
2018-07-31T15:12:46.742Z,103408.46
2018-07-31T15:14:24.650Z,103367.19
2018-07-31T15:16:06.052Z,103364.52
2018-07-31T15:17:43.608Z,103415.19
2018-07-31T15:19:20.225Z,103430.16
2018-07-31T15:20:58.340Z,103439.23
2018-07-31T15:22:35.303Z,103447.31
2018-07-31T15:24:12.890Z,103414.70
2018-07-31T15:25:50.368Z,103450.47
2018-07-31T15:27:27.866Z,103451.77
2018-07-31T15:29:05.445Z,103427.31
2018-07-31T15:30:44.171Z,103365.72
2018-07-31T15:32:22.104Z,103356.56
2018-07-31T15:34:00.390Z,103355.06
2018-07-31T15:35:38.875Z,103367.79
2018-07-31T15:37:16.750Z,103338.80
2018-07-31T15:38:53.411Z,103243.14
2018-07-31T15:40:46.837Z,103245.41
2018-07-31T15:42:24.318Z,103258.49
2018-07-31T15:44:04.818Z,103283.33
2018-07-31T15:45:43.042Z,103263.80
2018-07-31T15:47:20.298Z,103208.17
2018-07-31T15:48:58.981Z,103156.98
2018-07-31T15:50:35.525Z,103126.66
2018-07-31T15:52:13.276Z,103149.60
2018-07-31T15:54:07.214Z,103145.55
2018-07-31T15:55:46.426Z,103098.02
2018-07-31T15:57:24.803Z,103086.60
2018-07-31T15:59:01.833Z,103156.77
2018-07-31T16:00:40.141Z,103248.64
2018-07-31T16:02:19.272Z,103232.70
2018-07-31T16:03:58.036Z,103162.11
2018-07-31T16:05:37.089Z,103158.46
2018-07-31T16:07:16.265Z,103156.59
2018-07-31T16:08:56.694Z,103040.13
2018-07-31T16:10:36.311Z,102926.20
2018-07-31T16:12:13.901Z,102920.70
2018-07-31T16:13:56.091Z,102909.80
2018-07-31T16:15:38.148Z,102894.45
2018-07-31T16:17:15.678Z,102899.38
2018-07-31T16:18:52.577Z,102952.27
2018-07-31T16:20:30.290Z,103054.52
2018-07-31T16:22:08.823Z,103075.28
2018-07-31T16:23:46.567Z,103095.16
2018-07-31T16:25:30.396Z,103073.91
2018-07-31T16:27:51.805Z,103023.59
2018-07-31T16:29:31.994Z,103047.14
2018-07-31T16:31:17.956Z,103034.44
2018-07-31T16:32:57.412Z,103001.34
2018-07-31T16:34:34.822Z,103026.27
2018-07-31T16:36:13.134Z,103037.98
2018-07-31T16:37:51.561Z,103081.87
2018-07-31T16:39:32.203Z,103075.87
2018-07-31T16:41:10.995Z,103022.04
2018-07-31T16:42:48.789Z,102965.34
2018-07-31T16:44:26.734Z,102959.56
2018-07-31T16:46:07.832Z,102931.05
2018-07-31T16:47:44.712Z,102936.55
2018-07-31T16:51:03.852Z,103046.84
2018-07-31T16:52:49.761Z,103081.20
2018-07-31T16:54:26.555Z,103105.98
2018-07-31T16:56:03.339Z,103103.13
2018-07-31T16:57:48.529Z,103089.17
2018-07-31T16:59:25.606Z,103071.92
2018-07-31T17:01:08.405Z,103082.37
2018-07-31T17:02:56.343Z,103041.64
2018-07-31T17:04:35.115Z,103000.89
2018-07-31T17:06:14.353Z,102966.33
2018-07-31T17:07:55.484Z,102965.44
2018-07-31T17:09:42.217Z,102994.00
2018-07-31T17:11:21.066Z,103013.87
2018-07-31T17:12:59.761Z,103016.63
2018-07-31T17:14:38.567Z,103016.53
2018-07-31T17:16:16.520Z,103038.67
2018-07-31T17:17:56.018Z,103036.31
2018-07-31T17:19:36.483Z,102948.16
2018-07-31T17:21:15.356Z,102895.73
2018-07-31T17:22:54.568Z,102878.81
2018-07-31T17:24:32.596Z,102824.64
2018-07-31T17:26:12.447Z,102802.44
2018-07-31T17:27:50.471Z,102805.19
2018-07-31T17:29:30.578Z,102842.22
2018-07-31T17:31:14.245Z,102890.09
2018-07-31T17:32:54.057Z,102943.80
2018-07-31T17:34:32.818Z,102960.55
2018-07-31T17:36:11.746Z,102908.22
2018-07-31T17:37:51.399Z,102835.25
2018-07-31T17:39:44.312Z,102777.84
2018-07-31T17:41:23.169Z,102657.77
2018-07-31T17:43:20.247Z,102486.75
2018-07-31T17:45:05.535Z,102415.94
2018-07-31T17:46:44.667Z,102414.95
2018-07-31T17:48:23.263Z,102371.69
2018-07-31T17:50:01.363Z,102359.80
2018-07-31T17:51:38.370Z,102396.39
2018-07-31T17:53:16.596Z,102370.22
2018-07-31T17:54:59.912Z,102382.39
2018-07-31T17:56:37.304Z,102365.59
2018-07-31T17:58:14.417Z,102371.00
2018-07-31T17:59:52.112Z,102362.06
2018-07-31T18:01:30.690Z,102353.06
2018-07-31T18:03:07.744Z,102351.07
2018-07-31T18:04:44.513Z,102322.38
2018-07-31T18:06:22.986Z,102307.84
2018-07-31T18:08:03.225Z,102215.52
2018-07-31T18:09:41.888Z,102148.52
2018-07-31T18:11:18.675Z,102141.36
2018-07-31T18:12:56.024Z,102134.01
2018-07-31T18:14:35.942Z,102106.09
2018-07-31T18:16:16.551Z,102022.59
2018-07-31T18:17:55.588Z,101919.95
2018-07-31T18:19:34.293Z,101895.30
2018-07-31T18:21:12.414Z,101875.45
2018-07-31T18:22:51.871Z,101866.94
2018-07-31T18:24:33.553Z,101807.47
2018-07-31T18:26:11.291Z,101728.99
2018-07-31T18:27:59.376Z,101678.15
2018-07-31T18:29:52.292Z,101618.88
2018-07-31T18:31:39.264Z,101605.53
2018-07-31T18:33:35.247Z,101618.00
2018-07-31T18:35:23.518Z,101647.70
2018-07-31T18:37:06.660Z,101672.31
2018-07-31T18:38:45.545Z,101688.91
2018-07-31T18:40:30.217Z,101697.42
2018-07-31T18:42:12.888Z,101687.93
2018-07-31T18:43:56.534Z,101683.92
2018-07-31T18:45:37.419Z,101705.02
2018-07-31T18:47:14.951Z,101697.91
2018-07-31T18:48:56.453Z,101673.55
2018-07-31T18:50:33.246Z,101637.73
2018-07-31T18:52:11.097Z,101596.92
2018-07-31T18:53:52.231Z,101619.77
2018-07-31T18:55:34.539Z,101672.80
2018-07-31T18:57:13.833Z,101727.48
2018-07-31T18:58:53.039Z,101742.36
2018-07-31T19:00:32.375Z,101779.19
2018-07-31T19:02:12.468Z,101783.69
2018-07-31T19:03:50.985Z,101747.74